createdAt,value
2023-05-13T00:00:37.800Z,13.40
2023-05-13T00:03:04.537Z,11.30
2023-05-13T00:05:32.827Z,9.40
2023-05-13T00:08:01.436Z,12.80
2023-05-13T00:10:28.548Z,12.10
2023-05-13T00:12:55.627Z,9.80
2023-05-13T00:15:22.402Z,13.70
2023-05-13T00:17:49.083Z,11.90
2023-05-13T00:20:15.845Z,11.60
2023-05-13T00:22:42.657Z,9.90
2023-05-13T00:25:09.422Z,8.20
2023-05-13T00:27:36.272Z,11.20
2023-05-13T00:30:04.950Z,12.00
2023-05-13T00:32:32.181Z,9.90
2023-05-13T00:34:59.298Z,10.40
2023-05-13T00:37:26.639Z,11.10
2023-05-13T00:39:53.409Z,11.70
2023-05-13T00:42:20.595Z,8.40
2023-05-13T00:44:47.513Z,8.70
2023-05-13T00:47:14.218Z,9.10
2023-05-13T00:49:40.944Z,10.40
2023-05-13T00:52:07.582Z,9.60
2023-05-13T00:54:34.697Z,12.50
2023-05-13T00:57:01.417Z,9.80
2023-05-13T00:59:29.065Z,9.50
2023-05-13T01:02:17.491Z,13.20
2023-05-13T01:04:58.114Z,11.20
2023-05-13T01:07:42.742Z,11.10
2023-05-13T01:10:33.216Z,12.10
2023-05-13T01:13:04.304Z,11.40
2023-05-13T01:15:31.069Z,10.50
2023-05-13T01:18:13.048Z,9.00
2023-05-13T01:20:41.940Z,11.20
2023-05-13T01:23:10.225Z,11.10
2023-05-13T01:25:39.925Z,10.90
2023-05-13T01:28:07.360Z,12.10
2023-05-13T01:30:37.738Z,10.60
2023-05-13T01:33:04.961Z,9.60
2023-05-13T01:35:31.811Z,11.40
2023-05-13T01:38:00.159Z,10.70
2023-05-13T01:40:32.900Z,14.80
2023-05-13T01:43:06.643Z,10.40
2023-05-13T01:45:35.492Z,11.00
2023-05-13T01:48:02.854Z,9.00
2023-05-13T01:50:38.278Z,11.70
2023-05-13T01:53:05.158Z,13.00
2023-05-13T01:55:31.882Z,19.40
2023-05-13T01:57:59.417Z,19.40
2023-05-13T02:00:26.220Z,20.00
2023-05-13T02:02:53.050Z,20.80
2023-05-13T02:05:20.560Z,18.80
2023-05-13T02:07:47.213Z,16.30
2023-05-13T02:10:13.969Z,21.20
2023-05-13T02:12:41.092Z,21.20
2023-05-13T02:15:08.234Z,16.80
2023-05-13T02:17:36.159Z,16.60
2023-05-13T02:20:03.590Z,15.70
2023-05-13T02:22:31.042Z,13.40
2023-05-13T02:24:58.424Z,15.80
2023-05-13T02:27:25.153Z,16.10
2023-05-13T02:29:52.851Z,11.80
2023-05-13T02:32:19.490Z,13.70
2023-05-13T02:34:46.272Z,10.00
2023-05-13T02:37:13.584Z,12.40
2023-05-13T02:39:42.688Z,12.20
2023-05-13T02:42:09.556Z,10.80
2023-05-13T02:44:37.228Z,10.00
2023-05-13T02:47:04.590Z,11.80
2023-05-13T02:49:31.597Z,16.70
2023-05-13T02:51:58.380Z,17.30
2023-05-13T02:54:30.989Z,15.50
2023-05-13T02:56:58.179Z,17.10
2023-05-13T02:59:25.108Z,18.30
2023-05-13T03:01:51.966Z,21.80
2023-05-13T03:04:18.789Z,26.50
2023-05-13T03:06:46.653Z,16.80
2023-05-13T03:09:13.426Z,20.70
2023-05-13T03:11:41.207Z,20.80
2023-05-13T03:14:07.867Z,20.40
2023-05-13T03:16:34.804Z,19.90
2023-05-13T03:19:02.073Z,22.00
2023-05-13T03:21:29.048Z,25.10
2023-05-13T03:23:55.702Z,22.30
2023-05-13T03:26:22.437Z,21.60
2023-05-13T03:28:49.163Z,22.80
2023-05-13T03:31:16.195Z,18.30
2023-05-13T03:33:46.500Z,24.30
2023-05-13T03:36:13.888Z,19.30
2023-05-13T03:38:40.611Z,26.10
2023-05-13T03:41:07.456Z,27.50
2023-05-13T03:43:35.319Z,23.00
2023-05-13T03:46:03.624Z,24.40
2023-05-13T03:48:30.952Z,24.20
2023-05-13T03:50:58.531Z,24.30
2023-05-13T03:53:25.428Z,23.30
2023-05-13T03:55:53.191Z,24.70
2023-05-13T03:58:22.117Z,27.70
2023-05-13T04:00:49.214Z,25.70
2023-05-13T04:03:20.320Z,32.40
2023-05-13T04:05:48.463Z,24.30
2023-05-13T04:08:15.416Z,29.00
2023-05-13T04:10:43.281Z,24.50
2023-05-13T04:13:10.343Z,22.00
2023-05-13T04:15:37.442Z,25.30
2023-05-13T04:18:05.736Z,24.00
2023-05-13T04:20:32.759Z,25.30
2023-05-13T04:23:00.690Z,28.50
2023-05-13T04:25:27.385Z,22.40
2023-05-13T04:27:54.260Z,23.00
2023-05-13T04:30:42.459Z,23.40
2023-05-13T04:33:09.584Z,23.00
2023-05-13T04:35:38.075Z,25.70
2023-05-13T04:38:05.223Z,31.30
2023-05-13T04:40:32.335Z,27.70
2023-05-13T04:43:04.111Z,29.30
2023-05-13T04:45:36.480Z,28.90
2023-05-13T04:48:13.365Z,31.20
2023-05-13T04:50:50.108Z,23.90
2023-05-13T04:53:18.163Z,22.60
2023-05-13T04:55:47.871Z,27.50
2023-05-13T04:58:17.571Z,26.20
2023-05-13T05:00:45.131Z,19.60
2023-05-13T05:03:16.359Z,17.30
2023-05-13T05:05:43.415Z,15.90
2023-05-13T05:08:11.632Z,15.40
2023-05-13T05:10:38.950Z,11.30
2023-05-13T05:13:06.527Z,18.70
2023-05-13T05:15:33.363Z,12.50
2023-05-13T05:18:01.533Z,17.60
2023-05-13T05:20:28.824Z,13.10
2023-05-13T05:23:01.338Z,11.40
2023-05-13T05:25:29.216Z,11.10
2023-05-13T05:27:56.609Z,12.00
2023-05-13T05:30:23.829Z,10.20
2023-05-13T05:32:59.296Z,11.40
2023-05-13T05:35:26.023Z,13.10
2023-05-13T05:37:53.397Z,8.40
2023-05-13T05:40:21.013Z,18.40
2023-05-13T05:42:48.606Z,6.50
2023-05-13T05:45:15.510Z,7.10
2023-05-13T05:47:42.940Z,5.60
2023-05-13T05:50:10.840Z,7.70
2023-05-13T05:52:51.176Z,5.50
2023-05-13T05:55:33.777Z,5.20
2023-05-13T06:01:01.637Z,5.40
2023-05-13T06:03:28.602Z,4.60
2023-05-13T06:05:55.562Z,4.10
2023-05-13T06:08:41.802Z,3.80
2023-05-13T06:11:08.569Z,6.10
2023-05-13T06:13:43.919Z,4.20
2023-05-13T06:16:44.911Z,4.40
2023-05-13T06:19:12.556Z,4.20
2023-05-13T06:22:00.485Z,3.20
2023-05-13T06:24:45.440Z,3.00
2023-05-13T06:27:13.588Z,6.20
2023-05-13T06:29:42.654Z,3.70
2023-05-13T06:32:09.420Z,4.50
2023-05-13T06:34:37.842Z,6.40
2023-05-13T06:37:05.514Z,5.30
2023-05-13T06:39:32.641Z,4.60
2023-05-13T06:41:59.357Z,4.60
2023-05-13T06:44:31.383Z,5.20
2023-05-13T06:46:58.400Z,3.40
2023-05-13T06:49:25.100Z,4.60
2023-05-13T06:51:53.682Z,5.00
2023-05-13T06:54:20.624Z,4.20
2023-05-13T06:56:47.273Z,3.30
2023-05-13T06:59:14.634Z,7.60
2023-05-13T07:01:41.858Z,3.80
2023-05-13T07:04:08.511Z,8.30
2023-05-13T07:06:35.335Z,5.00
2023-05-13T07:09:07.171Z,6.20
2023-05-13T07:11:36.364Z,3.60
2023-05-13T07:14:02.993Z,5.00
2023-05-13T07:16:30.214Z,3.30
2023-05-13T07:18:58.709Z,2.90
2023-05-13T07:21:26.271Z,3.20
2023-05-13T07:23:53.034Z,5.60
2023-05-13T07:26:21.088Z,2.90
2023-05-13T07:28:48.595Z,4.00
2023-05-13T07:31:15.285Z,4.90
2023-05-13T07:33:42.453Z,3.50
2023-05-13T07:36:09.166Z,4.80
2023-05-13T07:38:36.550Z,3.30
2023-05-13T07:41:03.181Z,3.00
2023-05-13T07:44:03.184Z,2.70
2023-05-13T07:46:30.003Z,5.00
2023-05-13T07:48:56.914Z,3.50
2023-05-13T07:51:23.549Z,3.60
2023-05-13T07:53:51.699Z,4.40
2023-05-13T07:56:18.312Z,4.10
2023-05-13T07:58:45.604Z,5.30
2023-05-13T08:01:12.300Z,3.00
2023-05-13T08:03:40.329Z,12.10
2023-05-13T08:06:07.428Z,5.70
2023-05-13T08:08:35.015Z,4.40
2023-05-13T08:11:01.693Z,3.30
2023-05-13T08:13:29.840Z,2.60
2023-05-13T08:16:01.734Z,3.60
2023-05-13T08:18:28.933Z,5.20
2023-05-13T08:20:55.788Z,6.40
2023-05-13T08:23:30.743Z,4.70
2023-05-13T08:26:07.614Z,3.70
2023-05-13T08:28:34.725Z,5.20
2023-05-13T08:31:03.002Z,2.70
2023-05-13T08:33:31.647Z,3.90
2023-05-13T08:35:59.054Z,2.70
2023-05-13T08:38:26.077Z,2.90
2023-05-13T08:40:53.184Z,3.60
2023-05-13T08:43:22.959Z,5.10
2023-05-13T08:45:50.185Z,4.20
2023-05-13T08:48:17.118Z,5.60
2023-05-13T08:50:44.048Z,3.90
2023-05-13T08:53:11.961Z,4.00
2023-05-13T08:55:40.068Z,2.30
2023-05-13T08:58:07.476Z,3.10
2023-05-13T09:00:34.313Z,2.90
2023-05-13T09:03:01.410Z,2.00
2023-05-13T09:05:28.735Z,2.70
2023-05-13T09:07:55.909Z,3.20
2023-05-13T09:10:22.642Z,4.00
2023-05-13T09:13:23.849Z,2.80
2023-05-13T09:15:51.176Z,10.80
2023-05-13T09:18:19.263Z,4.70
2023-05-13T09:20:47.547Z,4.80
2023-05-13T09:23:15.463Z,6.10
2023-05-13T09:25:42.711Z,5.40
2023-05-13T09:28:09.632Z,4.10
2023-05-13T09:30:42.487Z,4.90
2023-05-13T09:33:21.750Z,2.20
2023-05-13T09:35:50.161Z,3.60
2023-05-13T09:38:20.672Z,2.70
2023-05-13T09:40:54.969Z,3.70
2023-05-13T09:43:22.653Z,4.10
2023-05-13T09:45:57.056Z,3.30
2023-05-13T09:48:28.710Z,3.50
2023-05-13T09:50:57.320Z,6.70
2023-05-13T09:53:25.006Z,2.80
2023-05-13T09:55:53.361Z,7.00
2023-05-13T09:58:20.395Z,2.10
2023-05-13T10:00:47.476Z,4.40
2023-05-13T10:03:15.472Z,2.30
2023-05-13T10:05:42.428Z,2.10
2023-05-13T10:08:11.386Z,7.40
2023-05-13T10:10:38.395Z,5.70
2023-05-13T10:13:07.934Z,3.80
2023-05-13T10:15:34.699Z,2.60
2023-05-13T10:18:01.571Z,4.50
2023-05-13T10:20:29.267Z,3.10
2023-05-13T10:22:55.989Z,4.40
2023-05-13T10:25:22.768Z,1.80
2023-05-13T10:27:49.534Z,10.00
2023-05-13T10:30:36.156Z,3.20
2023-05-13T10:33:03.056Z,4.80
2023-05-13T10:35:33.480Z,2.70
2023-05-13T10:38:10.700Z,2.30
2023-05-13T10:41:13.803Z,2.10
2023-05-13T10:43:40.766Z,7.40
2023-05-13T10:46:08.488Z,3.30
2023-05-13T10:48:50.417Z,2.80
2023-05-13T10:51:17.554Z,4.30
2023-05-13T10:53:51.952Z,2.60
2023-05-13T10:56:23.674Z,5.60
2023-05-13T10:59:00.904Z,3.80
2023-05-13T11:01:33.729Z,5.70
2023-05-13T11:04:02.727Z,3.40
2023-05-13T11:06:33.994Z,2.10
2023-05-13T11:09:09.137Z,3.00
2023-05-13T11:11:36.361Z,1.70
2023-05-13T11:14:08.760Z,4.70
2023-05-13T11:16:36.830Z,4.30
2023-05-13T11:19:04.052Z,3.90
2023-05-13T11:21:32.927Z,3.50
2023-05-13T11:24:03.987Z,4.10
2023-05-13T11:26:58.419Z,5.60
2023-05-13T11:29:29.748Z,5.40
2023-05-13T11:32:00.083Z,9.00
2023-05-13T11:34:27.595Z,4.80
2023-05-13T11:36:57.447Z,5.70
2023-05-13T11:39:25.977Z,2.50
2023-05-13T11:41:53.223Z,4.10
2023-05-13T11:44:22.153Z,4.10
2023-05-13T11:46:55.086Z,8.20
2023-05-13T11:49:36.720Z,4.10
2023-05-13T11:52:08.262Z,3.80
2023-05-13T11:57:32.163Z,3.10
2023-05-13T12:00:04.278Z,8.00
2023-05-13T12:02:39.800Z,3.10
2023-05-13T12:05:08.117Z,3.50
2023-05-13T12:07:37.441Z,5.20
2023-05-13T12:10:05.218Z,2.40
2023-05-13T12:12:34.117Z,2.50
2023-05-13T12:15:03.081Z,2.20
2023-05-13T12:17:30.604Z,3.00
2023-05-13T12:20:06.922Z,4.50
2023-05-13T12:22:34.173Z,4.00
2023-05-13T12:25:22.779Z,2.70
2023-05-13T12:27:53.109Z,3.90
2023-05-13T12:30:19.798Z,2.40
2023-05-13T12:32:47.270Z,1.60
2023-05-13T12:35:15.349Z,2.60
2023-05-13T12:37:42.110Z,2.00
2023-05-13T12:40:12.525Z,10.60
2023-05-13T12:42:44.426Z,6.50
2023-05-13T12:47:51.470Z,3.60
2023-05-13T12:50:18.631Z,3.80
2023-05-13T12:52:45.445Z,3.70
2023-05-13T12:55:15.378Z,4.20
2023-05-13T12:57:42.211Z,6.40
2023-05-13T13:00:10.264Z,5.10
2023-05-13T13:02:39.891Z,6.10
2023-05-13T13:05:07.293Z,3.30
2023-05-13T13:07:35.445Z,8.90
2023-05-13T13:10:02.152Z,3.50
2023-05-13T13:12:29.130Z,3.20
2023-05-13T13:14:56.033Z,2.60
2023-05-13T13:17:23.248Z,10.40
2023-05-13T13:19:51.263Z,5.20
2023-05-13T13:22:17.962Z,2.30
2023-05-13T13:24:44.768Z,2.40
2023-05-13T13:27:11.760Z,4.90
2023-05-13T13:29:38.479Z,7.40
2023-05-13T13:32:06.502Z,2.90
2023-05-13T13:34:33.217Z,8.20
2023-05-13T13:37:00.012Z,8.80
2023-05-13T13:39:26.671Z,5.20
2023-05-13T13:41:53.278Z,7.50
2023-05-13T13:44:20.047Z,2.90
2023-05-13T13:46:46.877Z,6.50
2023-05-13T13:49:23.387Z,5.30
2023-05-13T13:51:53.777Z,5.00
2023-05-13T13:54:20.565Z,5.10
2023-05-13T13:56:47.482Z,17.30
2023-05-13T13:59:14.121Z,7.30
2023-05-13T14:01:43.350Z,4.80
2023-05-13T14:04:10.779Z,4.70
2023-05-13T14:06:37.648Z,2.30
2023-05-13T14:09:05.914Z,6.30
2023-05-13T14:11:33.151Z,6.10
2023-05-13T14:14:00.432Z,4.70
2023-05-13T14:16:27.221Z,12.40
2023-05-13T14:18:54.020Z,7.10
2023-05-13T14:21:20.845Z,5.50
2023-05-13T14:23:47.599Z,7.50
2023-05-13T14:26:16.989Z,26.90
2023-05-13T14:28:43.677Z,11.40
2023-05-13T14:31:10.527Z,8.40
2023-05-13T14:33:37.556Z,7.10
2023-05-13T14:36:05.526Z,5.40
2023-05-13T14:38:32.501Z,9.40
2023-05-13T14:40:59.248Z,5.10
2023-05-13T14:43:25.995Z,5.00
2023-05-13T14:45:53.498Z,3.90
2023-05-13T14:48:20.193Z,2.50
2023-05-13T14:50:46.956Z,3.90
2023-05-13T14:53:14.700Z,4.10
2023-05-13T14:55:41.852Z,4.20
2023-05-13T14:58:08.548Z,2.20
2023-05-13T15:00:37.107Z,2.80
2023-05-13T15:03:04.977Z,6.90
2023-05-13T15:05:31.960Z,3.60
2023-05-13T15:07:59.454Z,3.80
2023-05-13T15:10:26.189Z,11.40
2023-05-13T15:12:53.497Z,3.30
2023-05-13T15:15:20.370Z,8.90
2023-05-13T15:17:47.189Z,32.90
2023-05-13T15:20:14.153Z,5.40
2023-05-13T15:22:40.833Z,7.40
2023-05-13T15:25:07.856Z,18.80
2023-05-13T15:27:34.762Z,7.50
2023-05-13T15:30:02.102Z,11.20
2023-05-13T15:32:29.607Z,3.50
2023-05-13T15:34:56.299Z,8.40
2023-05-13T15:37:22.975Z,5.50
2023-05-13T15:39:49.920Z,4.60
2023-05-13T15:42:16.750Z,6.80
2023-05-13T15:44:44.958Z,4.10
2023-05-13T15:47:11.858Z,9.00
2023-05-13T15:49:38.621Z,5.90
2023-05-13T15:52:07.013Z,5.40
2023-05-13T15:54:34.396Z,7.50
2023-05-13T15:57:01.208Z,6.90
2023-05-13T15:59:28.335Z,4.70
2023-05-13T16:01:55.177Z,6.20
2023-05-13T16:04:22.176Z,8.50
2023-05-13T16:06:48.999Z,5.60
2023-05-13T16:09:15.680Z,5.70
2023-05-13T16:11:42.977Z,15.70
2023-05-13T16:14:09.785Z,17.90
2023-05-13T16:16:37.090Z,11.40
2023-05-13T16:19:03.975Z,8.40
2023-05-13T16:21:31.968Z,16.30
2023-05-13T16:23:58.678Z,21.70
2023-05-13T16:26:25.721Z,23.00
2023-05-13T16:28:52.561Z,34.80
2023-05-13T16:31:19.394Z,22.10
2023-05-13T16:33:46.062Z,14.70
2023-05-13T16:36:12.791Z,19.90
2023-05-13T16:38:40.804Z,13.90
2023-05-13T16:41:07.902Z,20.20
2023-05-13T16:43:34.582Z,20.60
2023-05-13T16:46:01.419Z,19.10
2023-05-13T16:48:28.638Z,21.70
2023-05-13T16:50:55.614Z,21.10
2023-05-13T16:53:22.779Z,17.60
2023-05-13T16:55:51.076Z,17.10
2023-05-13T16:58:18.386Z,22.50
2023-05-13T17:00:45.946Z,33.30
2023-05-13T17:03:13.282Z,33.90
2023-05-13T17:05:40.275Z,30.30
2023-05-13T17:08:07.313Z,24.00
2023-05-13T17:10:34.026Z,32.70
2023-05-13T17:13:00.805Z,27.10
2023-05-13T17:15:27.558Z,35.80
2023-05-13T17:17:54.357Z,36.10
2023-05-13T17:20:21.352Z,34.80
2023-05-13T17:22:48.277Z,37.00
2023-05-13T17:25:15.032Z,35.10
2023-05-13T17:27:42.420Z,67.80
2023-05-13T17:30:09.676Z,94.00
2023-05-13T17:32:37.014Z,104.30
2023-05-13T17:35:04.195Z,154.50
2023-05-13T17:37:31.138Z,107.90
2023-05-13T17:40:01.344Z,113.50
2023-05-13T17:42:29.761Z,136.60
2023-05-13T17:44:56.611Z,137.40
2023-05-13T17:47:23.339Z,120.90
2023-05-13T17:49:49.963Z,114.20
2023-05-13T17:52:16.643Z,125.30
2023-05-13T17:54:43.298Z,132.90
2023-05-13T17:57:10.817Z,97.70
2023-05-13T17:59:37.519Z,72.80
2023-05-13T18:02:07.739Z,72.10
2023-05-13T18:04:34.648Z,61.80
2023-05-13T18:07:01.293Z,47.90
2023-05-13T18:09:28.801Z,41.40
2023-05-13T18:11:55.740Z,38.00
2023-05-13T18:14:22.523Z,26.20
2023-05-13T18:16:50.931Z,27.70
2023-05-13T18:19:17.926Z,35.40
2023-05-13T18:21:46.089Z,27.80
2023-05-13T18:24:12.854Z,35.00
2023-05-13T18:26:39.721Z,30.90
2023-05-13T18:29:06.476Z,27.10
2023-05-13T18:31:34.591Z,28.70
2023-05-13T18:34:02.337Z,21.40
2023-05-13T18:36:29.315Z,21.50
2023-05-13T18:38:56.025Z,23.50
2023-05-13T18:41:22.804Z,27.70
2023-05-13T18:43:49.621Z,31.10
2023-05-13T18:46:16.350Z,32.10
2023-05-13T18:48:43.087Z,23.30
2023-05-13T18:51:10.331Z,20.70
2023-05-13T18:53:38.939Z,28.60
2023-05-13T18:56:05.720Z,22.40
2023-05-13T18:58:32.667Z,31.40
2023-05-13T19:00:59.373Z,21.00
2023-05-13T19:03:26.610Z,26.00
2023-05-13T19:05:53.438Z,26.10
2023-05-13T19:08:20.536Z,33.70
2023-05-13T19:10:47.482Z,22.10
2023-05-13T19:13:16.263Z,23.30
2023-05-13T19:15:42.931Z,24.80
2023-05-13T19:18:09.734Z,38.30
2023-05-13T19:20:36.443Z,32.10
2023-05-13T19:23:03.215Z,41.00
2023-05-13T19:25:30.149Z,38.40
2023-05-13T19:27:56.965Z,28.00
2023-05-13T19:30:24.200Z,27.30
2023-05-13T19:32:51.923Z,27.60
2023-05-13T19:35:18.848Z,45.80
2023-05-13T19:37:45.984Z,45.30
2023-05-13T19:40:12.816Z,37.80
2023-05-13T19:42:41.486Z,38.20
2023-05-13T19:45:09.919Z,29.50
2023-05-13T19:47:36.960Z,44.60
2023-05-13T19:50:04.247Z,48.40
2023-05-13T19:52:31.126Z,40.50
2023-05-13T19:54:58.048Z,33.70
2023-05-13T19:57:25.892Z,45.70
2023-05-13T19:59:54.262Z,34.60
2023-05-13T20:02:21.033Z,32.30
2023-05-13T20:04:47.831Z,29.50
2023-05-13T20:07:21.161Z,31.80
2023-05-13T20:09:47.944Z,31.00
2023-05-13T20:12:15.340Z,29.40
2023-05-13T20:14:46.656Z,32.00
2023-05-13T20:17:20.518Z,25.70
2023-05-13T20:19:48.388Z,24.50
2023-05-13T20:22:16.003Z,32.40
2023-05-13T20:24:43.125Z,27.00
2023-05-13T20:27:10.146Z,38.50
2023-05-13T20:29:38.127Z,27.30
2023-05-13T20:32:06.082Z,30.40
2023-05-13T20:34:33.938Z,22.80
2023-05-13T20:37:00.942Z,31.30
2023-05-13T20:39:30.567Z,28.00
2023-05-13T20:41:57.285Z,33.90
2023-05-13T20:44:24.140Z,25.60
2023-05-13T20:46:50.993Z,22.70
2023-05-13T20:49:18.112Z,31.20
2023-05-13T20:51:46.982Z,28.20
2023-05-13T20:54:14.064Z,33.00
2023-05-13T20:56:40.912Z,28.90
2023-05-13T20:59:07.714Z,31.70
2023-05-13T21:01:34.571Z,26.80
2023-05-13T21:04:02.022Z,31.80
2023-05-13T21:06:29.066Z,30.60
2023-05-13T21:08:55.920Z,33.00
2023-05-13T21:11:23.013Z,36.70
2023-05-13T21:13:50.678Z,33.50
2023-05-13T21:16:17.293Z,34.80
2023-05-13T21:18:44.034Z,26.50
2023-05-13T21:21:14.218Z,33.70
2023-05-13T21:23:43.322Z,33.60
2023-05-13T21:26:10.169Z,33.50
2023-05-13T21:28:36.857Z,26.30
2023-05-13T21:31:03.795Z,27.50
2023-05-13T21:33:31.041Z,28.90
2023-05-13T21:35:57.683Z,25.70
2023-05-13T21:38:24.396Z,35.50
2023-05-13T21:40:51.026Z,26.20
2023-05-13T21:43:18.033Z,27.60
2023-05-13T21:45:47.386Z,27.30
2023-05-13T21:48:14.166Z,36.60
2023-05-13T21:50:40.918Z,31.00
2023-05-13T21:53:07.590Z,41.20
2023-05-13T21:55:34.372Z,25.50
2023-05-13T21:58:02.354Z,26.70
2023-05-13T22:00:29.087Z,28.30
2023-05-13T22:03:02.639Z,27.90
2023-05-13T22:05:29.935Z,23.30
2023-05-13T22:07:56.796Z,30.90
2023-05-13T22:10:23.707Z,27.70
2023-05-13T22:12:50.651Z,26.50
2023-05-13T22:15:17.457Z,25.40
2023-05-13T22:17:44.216Z,27.40
2023-05-13T22:20:11.731Z,34.70
2023-05-13T22:22:38.411Z,32.60
2023-05-13T22:25:06.017Z,27.00
2023-05-13T22:27:32.744Z,47.00
2023-05-13T22:29:59.413Z,52.90
2023-05-13T22:32:26.074Z,45.80
2023-05-13T22:34:52.960Z,41.40
2023-05-13T22:37:19.593Z,44.30
2023-05-13T22:39:46.252Z,40.60
2023-05-13T22:42:12.974Z,38.10
2023-05-13T22:44:39.640Z,32.80
2023-05-13T22:47:07.712Z,32.30
2023-05-13T22:49:34.555Z,45.80
2023-05-13T22:52:01.296Z,36.10
2023-05-13T22:54:28.271Z,33.40
2023-05-13T22:56:55.028Z,37.30
2023-05-13T22:59:21.723Z,40.80
2023-05-13T23:01:48.751Z,39.30
2023-05-13T23:04:15.468Z,41.90
2023-05-13T23:06:42.208Z,43.90
2023-05-13T23:09:09.755Z,39.00
2023-05-13T23:11:37.528Z,33.00
2023-05-13T23:14:04.221Z,38.90
2023-05-13T23:16:31.769Z,40.60
2023-05-13T23:18:58.519Z,43.40
2023-05-13T23:21:25.479Z,40.40
2023-05-13T23:23:52.246Z,38.80
2023-05-13T23:26:19.084Z,36.80
2023-05-13T23:28:45.990Z,33.40
2023-05-13T23:31:12.828Z,30.30
2023-05-13T23:33:39.760Z,33.30
2023-05-13T23:36:07.516Z,28.70
2023-05-13T23:38:34.875Z,25.10
2023-05-13T23:41:01.626Z,26.80
2023-05-13T23:43:28.329Z,23.40
2023-05-13T23:45:54.970Z,20.10
2023-05-13T23:48:22.767Z,19.80
2023-05-13T23:50:49.444Z,18.40
2023-05-13T23:53:17.071Z,22.30
2023-05-13T23:55:43.824Z,16.60
2023-05-13T23:58:10.576Z,18.00
